Elko, Canada
Current Conditions -  °F | °C
As of 2:00 AM on Saturday 25 Oct 2014 (Local Time) from CYXC Reporting Station
Overcast Overcast  
Wind Chill: 35°   Ceiling: 12000
Heat Index: 39°   Visibility: 15mi
Dew Point: 34°   Wind: 6mph
Humidity: 81%   Direction: 320°NW
Pressure: 30.06"   Gusts: NA
Location:  49.3°N, 115.12°W
Report Text: CYXC 250800Z 32005KT 15SM SCT050 OVC120 04/01 A3006 RMK SC3AC5 WND ESTD SLP192
Loading
Personal Weather Stations






























Interactive Weather Map
Tropical Storm Tracking
New forecast layout! Learn more

10-Day Weather Forecast

Advertisements
Track Severe Weather on mobile